sensor_id;sensor_type;location;lat;lon;timestamp;pressure;altitude;pressure_sealevel;temperature;humidity
39309;BME280;26019;47.510;19.122;2024-02-23T00:02:08;98891.34;;;9.87;76.28
39309;BME280;26019;47.510;19.122;2024-02-23T00:12:10;98883.47;;;9.93;75.59
39309;BME280;26019;47.510;19.122;2024-02-23T00:22:12;98899.53;;;10.03;73.17
39309;BME280;26019;47.510;19.122;2024-02-23T00:32:15;98891.50;;;10.14;73.92
39309;BME280;26019;47.510;19.122;2024-02-23T00:42:19;98894.84;;;10.18;72.31
39309;BME280;26019;47.510;19.122;2024-02-23T00:52:24;98882.78;;;10.18;74.20
39309;BME280;26019;47.510;19.122;2024-02-23T01:02:28;98883.53;;;10.23;75.72
39309;BME280;26019;47.510;19.122;2024-02-23T01:12:31;98878.28;;;10.26;78.14
39309;BME280;26019;47.510;19.122;2024-02-23T01:22:34;98857.72;;;10.22;85.43
39309;BME280;26019;47.510;19.122;2024-02-23T01:32:37;98859.88;;;10.06;98.07
39309;BME280;26019;47.510;19.122;2024-02-23T01:42:40;98851.34;;;9.70;100.00
39309;BME280;26019;47.510;19.122;2024-02-23T01:52:42;98841.00;;;9.37;100.00
39309;BME280;26019;47.510;19.122;2024-02-23T02:02:45;98838.16;;;9.12;100.00
39309;BME280;26019;47.510;19.122;2024-02-23T02:12:48;98827.94;;;9.09;100.00
39309;BME280;26019;47.510;19.122;2024-02-23T02:22:52;98830.19;;;9.23;100.00
39309;BME280;26019;47.510;19.122;2024-02-23T02:32:54;98830.69;;;9.01;100.00
39309;BME280;26019;47.510;19.122;2024-02-23T02:42:58;98827.91;;;9.10;100.00
39309;BME280;26019;47.510;19.122;2024-02-23T02:52:59;98821.44;;;8.92;100.00
39309;BME280;26019;47.510;19.122;2024-02-23T03:03:02;98829.50;;;8.78;100.00
39309;BME280;26019;47.510;19.122;2024-02-23T03:13:05;98826.31;;;8.67;100.00
39309;BME280;26019;47.510;19.122;2024-02-23T03:23:07;98830.88;;;8.54;100.00
39309;BME280;26019;47.510;19.122;2024-02-23T03:33:10;98838.66;;;8.51;100.00
39309;BME280;26019;47.510;19.122;2024-02-23T03:43:12;98833.50;;;8.52;100.00
39309;BME280;26019;47.510;19.122;2024-02-23T03:53:15;98844.25;;;8.70;100.00
39309;BME280;26019;47.510;19.122;2024-02-23T04:03:19;98844.91;;;8.80;100.00
39309;BME280;26019;47.510;19.122;2024-02-23T04:13:22;98846.28;;;8.95;100.00
39309;BME280;26019;47.510;19.122;2024-02-23T04:23:24;98847.28;;;8.89;100.00
39309;BME280;26019;47.510;19.122;2024-02-23T04:33:26;98843.13;;;8.84;100.00
39309;BME280;26019;47.510;19.122;2024-02-23T04:43:28;98848.59;;;8.68;100.00
39309;BME280;26019;47.510;19.122;2024-02-23T04:53:30;98856.44;;;8.63;100.00
39309;BME280;26019;47.510;19.122;2024-02-23T05:03:32;98845.88;;;8.76;100.00
39309;BME280;26019;47.510;19.122;2024-02-23T05:13:34;98861.47;;;9.07;100.00
39309;BME280;26019;47.510;19.122;2024-02-23T05:23:36;98880.69;;;9.32;100.00
39309;BME280;26019;47.510;19.122;2024-02-23T05:33:41;98892.78;;;9.28;100.00
39309;BME280;26019;47.510;19.122;2024-02-23T05:43:47;98912.63;;;9.26;100.00
39309;BME280;26019;47.510;19.122;2024-02-23T05:53:49;98932.75;;;9.08;100.00
39309;BME280;26019;47.510;19.122;2024-02-23T06:03:53;98947.88;;;8.83;100.00
39309;BME280;26019;47.510;19.122;2024-02-23T06:13:56;98961.34;;;8.54;100.00
39309;BME280;26019;47.510;19.122;2024-02-23T06:23:58;98968.50;;;8.37;100.00
39309;BME280;26019;47.510;19.122;2024-02-23T06:34:00;98982.13;;;8.43;100.00
39309;BME280;26019;47.510;19.122;2024-02-23T06:44:10;98978.69;;;8.42;100.00
39309;BME280;26019;47.510;19.122;2024-02-23T06:54:15;98985.59;;;8.40;100.00
39309;BME280;26019;47.510;19.122;2024-02-23T07:04:18;98984.22;;;8.71;100.00
39309;BME280;26019;47.510;19.122;2024-02-23T07:14:20;98991.72;;;8.81;100.00
39309;BME280;26019;47.510;19.122;2024-02-23T07:24:23;98999.06;;;9.00;100.00
39309;BME280;26019;47.510;19.122;2024-02-23T07:34:28;99014.28;;;9.13;100.00
39309;BME280;26019;47.510;19.122;2024-02-23T07:44:30;99005.91;;;9.01;100.00
39309;BME280;26019;47.510;19.122;2024-02-23T07:54:33;99004.91;;;9.08;100.00
39309;BME280;26019;47.510;19.122;2024-02-23T08:04:37;99026.63;;;9.37;100.00
39309;BME280;26019;47.510;19.122;2024-02-23T08:14:41;99029.34;;;9.31;100.00
39309;BME280;26019;47.510;19.122;2024-02-23T08:24:44;99040.09;;;9.50;100.00
39309;BME280;26019;47.510;19.122;2024-02-23T08:34:46;99046.44;;;9.75;100.00
39309;BME280;26019;47.510;19.122;2024-02-23T08:44:49;99047.19;;;9.80;100.00
39309;BME280;26019;47.510;19.122;2024-02-23T08:54:51;99054.00;;;9.84;100.00
39309;BME280;26019;47.510;19.122;2024-02-23T09:04:53;99068.97;;;9.68;100.00
39309;BME280;26019;47.510;19.122;2024-02-23T09:14:55;99064.13;;;9.92;100.00
39309;BME280;26019;47.510;19.122;2024-02-23T09:24:59;99075.53;;;10.19;100.00
39309;BME280;26019;47.510;19.122;2024-02-23T09:35:01;99073.91;;;10.15;100.00
39309;BME280;26019;47.510;19.122;2024-02-23T09:45:08;99082.94;;;9.95;100.00
39309;BME280;26019;47.510;19.122;2024-02-23T09:55:14;99088.78;;;10.04;100.00
39309;BME280;26019;47.510;19.122;2024-02-23T10:05:16;99084.38;;;10.09;100.00
39309;BME280;26019;47.510;19.122;2024-02-23T10:15:19;99102.91;;;10.26;100.00
39309;BME280;26019;47.510;19.122;2024-02-23T10:25:21;99096.94;;;10.23;100.00
39309;BME280;26019;47.510;19.122;2024-02-23T10:35:26;99103.63;;;10.31;100.00
39309;BME280;26019;47.510;19.122;2024-02-23T10:45:32;99109.25;;;10.49;100.00
39309;BME280;26019;47.510;19.122;2024-02-23T10:55:36;99102.47;;;10.45;100.00
39309;BME280;26019;47.510;19.122;2024-02-23T11:05:40;99101.84;;;10.70;100.00
39309;BME280;26019;47.510;19.122;2024-02-23T11:15:50;99105.75;;;10.85;100.00
39309;BME280;26019;47.510;19.122;2024-02-23T11:26:04;99109.75;;;10.97;100.00
39309;BME280;26019;47.510;19.122;2024-02-23T11:36:24;99110.63;;;10.97;100.00
39309;BME280;26019;47.510;19.122;2024-02-23T11:46:30;99097.13;;;11.17;100.00
39309;BME280;26019;47.510;19.122;2024-02-23T11:56:34;99087.69;;;11.46;100.00
39309;BME280;26019;47.510;19.122;2024-02-23T12:06:38;99077.91;;;11.56;100.00
39309;BME280;26019;47.510;19.122;2024-02-23T12:16:40;99076.84;;;11.92;100.00
39309;BME280;26019;47.510;19.122;2024-02-23T12:26:42;99080.75;;;12.05;100.00
39309;BME280;26019;47.510;19.122;2024-02-23T12:36:47;99071.91;;;11.56;100.00
39309;BME280;26019;47.510;19.122;2024-02-23T12:46:50;99073.97;;;11.44;100.00
39309;BME280;26019;47.510;19.122;2024-02-23T12:56:52;99074.75;;;11.46;100.00
39309;BME280;26019;47.510;19.122;2024-02-23T13:06:54;99088.03;;;11.34;100.00
39309;BME280;26019;47.510;19.122;2024-02-23T13:16:56;99090.84;;;11.26;100.00
39309;BME280;26019;47.510;19.122;2024-02-23T13:26:58;99089.97;;;11.27;100.00
39309;BME280;26019;47.510;19.122;2024-02-23T13:37:00;99086.72;;;11.20;100.00
39309;BME280;26019;47.510;19.122;2024-02-23T13:47:02;99080.50;;;11.26;100.00
39309;BME280;26019;47.510;19.122;2024-02-23T13:57:05;99063.47;;;11.19;100.00
39309;BME280;26019;47.510;19.122;2024-02-23T14:07:09;99058.19;;;11.24;100.00
39309;BME280;26019;47.510;19.122;2024-02-23T14:17:12;99053.00;;;11.24;100.00
39309;BME280;26019;47.510;19.122;2024-02-23T14:27:16;99057.09;;;11.31;100.00
39309;BME280;26019;47.510;19.122;2024-02-23T14:37:18;99045.13;;;11.27;100.00
39309;BME280;26019;47.510;19.122;2024-02-23T14:47:23;99043.84;;;11.12;100.00
39309;BME280;26019;47.510;19.122;2024-02-23T14:57:36;99044.22;;;10.98;100.00
39309;BME280;26019;47.510;19.122;2024-02-23T15:07:40;99035.00;;;10.89;100.00
39309;BME280;26019;47.510;19.122;2024-02-23T15:17:43;99028.13;;;10.89;100.00
39309;BME280;26019;47.510;19.122;2024-02-23T15:27:48;99027.97;;;10.94;100.00
39309;BME280;26019;47.510;19.122;2024-02-23T15:37:50;99024.34;;;11.00;100.00
39309;BME280;26019;47.510;19.122;2024-02-23T15:48:01;99034.69;;;11.00;100.00
39309;BME280;26019;47.510;19.122;2024-02-23T15:58:04;99035.41;;;11.05;100.00
39309;BME280;26019;47.510;19.122;2024-02-23T16:08:08;99029.66;;;10.95;100.00
39309;BME280;26019;47.510;19.122;2024-02-23T16:18:13;99031.53;;;10.90;100.00
39309;BME280;26019;47.510;19.122;2024-02-23T16:28:16;99023.63;;;10.96;100.00
39309;BME280;26019;47.510;19.122;2024-02-23T16:38:18;99021.94;;;10.94;100.00
39309;BME280;26019;47.510;19.122;2024-02-23T16:48:22;99023.88;;;10.87;100.00
39309;BME280;26019;47.510;19.122;2024-02-23T16:58:24;99025.63;;;10.86;100.00
39309;BME280;26019;47.510;19.122;2024-02-23T17:08:26;99035.94;;;10.86;100.00
39309;BME280;26019;47.510;19.122;2024-02-23T17:18:28;99035.09;;;10.86;100.00
39309;BME280;26019;47.510;19.122;2024-02-23T17:28:31;99030.78;;;10.86;100.00
39309;BME280;26019;47.510;19.122;2024-02-23T17:38:34;99029.75;;;10.92;100.00
39309;BME280;26019;47.510;19.122;2024-02-23T17:48:36;99025.47;;;10.91;100.00
39309;BME280;26019;47.510;19.122;2024-02-23T17:58:38;99010.19;;;10.83;100.00
39309;BME280;26019;47.510;19.122;2024-02-23T18:08:46;98991.53;;;10.73;100.00
39309;BME280;26019;47.510;19.122;2024-02-23T18:18:49;98973.94;;;10.86;100.00
39309;BME280;26019;47.510;19.122;2024-02-23T18:28:50;98967.78;;;10.90;100.00
39309;BME280;26019;47.510;19.122;2024-02-23T18:38:54;98954.16;;;10.84;100.00
39309;BME280;26019;47.510;19.122;2024-02-23T18:49:02;98951.66;;;10.81;100.00
39309;BME280;26019;47.510;19.122;2024-02-23T18:59:07;98938.66;;;10.84;100.00
39309;BME280;26019;47.510;19.122;2024-02-23T19:09:14;98939.63;;;10.81;100.00
39309;BME280;26019;47.510;19.122;2024-02-23T19:19:16;98944.59;;;10.87;100.00
39309;BME280;26019;47.510;19.122;2024-02-23T19:29:18;98931.72;;;10.86;100.00
39309;BME280;26019;47.510;19.122;2024-02-23T19:39:26;98936.97;;;10.83;100.00
39309;BME280;26019;47.510;19.122;2024-02-23T19:49:27;98940.50;;;10.80;100.00
39309;BME280;26019;47.510;19.122;2024-02-23T19:59:29;98938.84;;;10.78;100.00
39309;BME280;26019;47.510;19.122;2024-02-23T20:09:36;98939.63;;;10.80;100.00
39309;BME280;26019;47.510;19.122;2024-02-23T20:19:40;98921.53;;;10.81;100.00
39309;BME280;26019;47.510;19.122;2024-02-23T20:29:43;98949.09;;;10.81;100.00
39309;BME280;26019;47.510;19.122;2024-02-23T20:39:45;98941.31;;;10.82;100.00
39309;BME280;26019;47.510;19.122;2024-02-23T20:49:49;98932.78;;;10.79;100.00
39309;BME280;26019;47.510;19.122;2024-02-23T20:59:51;98934.47;;;10.80;100.00
39309;BME280;26019;47.510;19.122;2024-02-23T21:09:53;98932.66;;;10.83;100.00
39309;BME280;26019;47.510;19.122;2024-02-23T21:19:55;98936.53;;;10.98;100.00
39309;BME280;26019;47.510;19.122;2024-02-23T21:29:56;98938.84;;;11.08;100.00
39309;BME280;26019;47.510;19.122;2024-02-23T21:39:59;98948.41;;;11.04;100.00
39309;BME280;26019;47.510;19.122;2024-02-23T21:50:01;98936.94;;;11.13;100.00
39309;BME280;26019;47.510;19.122;2024-02-23T22:00:15;98936.53;;;11.27;100.00
39309;BME280;26019;47.510;19.122;2024-02-23T22:10:18;98933.03;;;11.56;100.00
39309;BME280;26019;47.510;19.122;2024-02-23T22:20:24;98948.81;;;11.75;100.00
39309;BME280;26019;47.510;19.122;2024-02-23T22:30:26;98937.75;;;11.70;100.00
39309;BME280;26019;47.510;19.122;2024-02-23T22:40:28;98941.25;;;11.69;100.00
39309;BME280;26019;47.510;19.122;2024-02-23T22:50:30;98938.75;;;11.66;100.00
39309;BME280;26019;47.510;19.122;2024-02-23T23:00:32;98944.09;;;11.61;100.00
39309;BME280;26019;47.510;19.122;2024-02-23T23:10:34;98944.97;;;11.60;100.00
39309;BME280;26019;47.510;19.122;2024-02-23T23:20:36;98939.28;;;11.49;100.00
39309;BME280;26019;47.510;19.122;2024-02-23T23:30:38;98934.91;;;11.51;100.00
39309;BME280;26019;47.510;19.122;2024-02-23T23:40:40;98935.97;;;11.45;100.00
39309;BME280;26019;47.510;19.122;2024-02-23T23:50:41;98946.31;;;11.45;100.00
